sensor_id;sensor_type;location;lat;lon;timestamp;temperature;humidity
51035;DHT22;37062;52.546;13.230;2023-02-28T00:01:25;3.70;99.90
51035;DHT22;37062;52.546;13.230;2023-02-28T00:03:56;3.80;99.90
51035;DHT22;37062;52.546;13.230;2023-02-28T00:06:24;3.70;99.90
51035;DHT22;37062;52.546;13.230;2023-02-28T00:08:52;3.70;99.90
51035;DHT22;37062;52.546;13.230;2023-02-28T00:11:20;3.70;99.90
51035;DHT22;37062;52.546;13.230;2023-02-28T00:13:49;3.70;99.90
51035;DHT22;37062;52.546;13.230;2023-02-28T00:16:19;3.70;99.90
51035;DHT22;37062;52.546;13.230;2023-02-28T00:18:48;3.70;99.90
51035;DHT22;37062;52.546;13.230;2023-02-28T00:21:18;3.60;99.90
51035;DHT22;37062;52.546;13.230;2023-02-28T00:23:47;3.60;99.90
51035;DHT22;37062;52.546;13.230;2023-02-28T00:26:16;3.70;99.90
51035;DHT22;37062;52.546;13.230;2023-02-28T00:28:48;3.70;99.90
51035;DHT22;37062;52.546;13.230;2023-02-28T00:31:17;3.80;99.90
51035;DHT22;37062;52.546;13.230;2023-02-28T00:33:45;3.80;99.90
51035;DHT22;37062;52.546;13.230;2023-02-28T00:36:14;3.80;99.90
51035;DHT22;37062;52.546;13.230;2023-02-28T00:38:43;3.80;99.90
51035;DHT22;37062;52.546;13.230;2023-02-28T00:41:11;3.70;99.90
51035;DHT22;37062;52.546;13.230;2023-02-28T00:43:40;3.70;99.90
51035;DHT22;37062;52.546;13.230;2023-02-28T00:46:10;3.70;99.90
51035;DHT22;37062;52.546;13.230;2023-02-28T00:48:38;3.70;99.90
51035;DHT22;37062;52.546;13.230;2023-02-28T00:51:08;3.70;99.90
51035;DHT22;37062;52.546;13.230;2023-02-28T00:53:36;3.70;99.90
51035;DHT22;37062;52.546;13.230;2023-02-28T00:56:06;3.60;99.90
51035;DHT22;37062;52.546;13.230;2023-02-28T00:58:34;3.50;99.90
51035;DHT22;37062;52.546;13.230;2023-02-28T01:01:03;3.50;99.90
51035;DHT22;37062;52.546;13.230;2023-02-28T01:03:32;3.40;99.90
51035;DHT22;37062;52.546;13.230;2023-02-28T01:06:00;3.40;99.90
51035;DHT22;37062;52.546;13.230;2023-02-28T01:08:28;3.40;99.90
51035;DHT22;37062;52.546;13.230;2023-02-28T01:10:57;3.40;99.90
51035;DHT22;37062;52.546;13.230;2023-02-28T01:13:26;3.50;99.90
51035;DHT22;37062;52.546;13.230;2023-02-28T01:15:55;3.50;99.90
51035;DHT22;37062;52.546;13.230;2023-02-28T01:18:24;3.50;99.90
51035;DHT22;37062;52.546;13.230;2023-02-28T01:20:52;3.50;99.90
51035;DHT22;37062;52.546;13.230;2023-02-28T01:23:22;3.60;99.90
51035;DHT22;37062;52.546;13.230;2023-02-28T01:25:50;3.60;99.90
51035;DHT22;37062;52.546;13.230;2023-02-28T01:28:19;3.50;99.90
51035;DHT22;37062;52.546;13.230;2023-02-28T01:30:51;3.50;99.90
51035;DHT22;37062;52.546;13.230;2023-02-28T01:33:19;3.50;99.90
51035;DHT22;37062;52.546;13.230;2023-02-28T01:35:47;3.50;99.90
51035;DHT22;37062;52.546;13.230;2023-02-28T01:38:16;3.60;99.90
51035;DHT22;37062;52.546;13.230;2023-02-28T01:40:49;3.50;99.90
51035;DHT22;37062;52.546;13.230;2023-02-28T01:43:21;3.50;99.90
51035;DHT22;37062;52.546;13.230;2023-02-28T01:45:52;3.40;99.90
51035;DHT22;37062;52.546;13.230;2023-02-28T01:48:22;3.40;99.90
51035;DHT22;37062;52.546;13.230;2023-02-28T01:50:53;3.40;99.90
51035;DHT22;37062;52.546;13.230;2023-02-28T01:53:27;3.40;99.90
51035;DHT22;37062;52.546;13.230;2023-02-28T01:55:58;3.30;99.90
51035;DHT22;37062;52.546;13.230;2023-02-28T01:58:26;3.20;99.90
51035;DHT22;37062;52.546;13.230;2023-02-28T02:00:57;3.10;99.90
51035;DHT22;37062;52.546;13.230;2023-02-28T02:03:26;3.10;99.90
51035;DHT22;37062;52.546;13.230;2023-02-28T02:05:54;3.20;99.90
51035;DHT22;37062;52.546;13.230;2023-02-28T02:08:24;3.20;99.90
51035;DHT22;37062;52.546;13.230;2023-02-28T02:10:55;3.20;99.90
51035;DHT22;37062;52.546;13.230;2023-02-28T02:13:47;3.20;99.90
51035;DHT22;37062;52.546;13.230;2023-02-28T02:16:37;3.20;99.90
51035;DHT22;37062;52.546;13.230;2023-02-28T02:19:25;3.20;99.90
51035;DHT22;37062;52.546;13.230;2023-02-28T02:22:25;3.20;99.90
51035;DHT22;37062;52.546;13.230;2023-02-28T02:25:16;3.10;99.90
51035;DHT22;37062;52.546;13.230;2023-02-28T02:28:03;3.00;99.90
51035;DHT22;37062;52.546;13.230;2023-02-28T02:30:49;3.00;99.90
51035;DHT22;37062;52.546;13.230;2023-02-28T02:33:32;3.10;99.90
51035;DHT22;37062;52.546;13.230;2023-02-28T02:36:13;3.10;99.90
51035;DHT22;37062;52.546;13.230;2023-02-28T02:38:47;3.00;99.90
51035;DHT22;37062;52.546;13.230;2023-02-28T02:41:22;3.00;99.90
51035;DHT22;37062;52.546;13.230;2023-02-28T02:43:56;2.90;99.90
51035;DHT22;37062;52.546;13.230;2023-02-28T02:46:29;3.00;99.90
51035;DHT22;37062;52.546;13.230;2023-02-28T02:49:02;3.00;99.90
51035;DHT22;37062;52.546;13.230;2023-02-28T02:51:33;2.90;99.90
51035;DHT22;37062;52.546;13.230;2023-02-28T02:54:07;2.90;99.90
51035;DHT22;37062;52.546;13.230;2023-02-28T02:56:36;2.90;99.90
51035;DHT22;37062;52.546;13.230;2023-02-28T02:59:09;2.80;99.90
51035;DHT22;37062;52.546;13.230;2023-02-28T03:01:41;2.80;99.90
51035;DHT22;37062;52.546;13.230;2023-02-28T03:04:13;2.70;99.90
51035;DHT22;37062;52.546;13.230;2023-02-28T03:06:43;2.70;99.90
51035;DHT22;37062;52.546;13.230;2023-02-28T03:09:11;2.70;99.90
51035;DHT22;37062;52.546;13.230;2023-02-28T03:11:40;2.70;99.90
51035;DHT22;37062;52.546;13.230;2023-02-28T03:14:20;2.60;99.90
51035;DHT22;37062;52.546;13.230;2023-02-28T03:17:02;2.60;99.90
51035;DHT22;37062;52.546;13.230;2023-02-28T03:19:47;2.50;99.90
51035;DHT22;37062;52.546;13.230;2023-02-28T03:22:45;2.40;99.90
51035;DHT22;37062;52.546;13.230;2023-02-28T03:25:22;2.40;99.90
51035;DHT22;37062;52.546;13.230;2023-02-28T03:28:00;2.40;99.90
51035;DHT22;37062;52.546;13.230;2023-02-28T03:30:38;2.30;99.90
51035;DHT22;37062;52.546;13.230;2023-02-28T03:33:11;2.30;99.90
51035;DHT22;37062;52.546;13.230;2023-02-28T03:35:45;2.20;99.90
51035;DHT22;37062;52.546;13.230;2023-02-28T03:38:19;2.20;99.90
51035;DHT22;37062;52.546;13.230;2023-02-28T03:40:50;2.10;99.90
51035;DHT22;37062;52.546;13.230;2023-02-28T03:43:23;2.10;99.90
51035;DHT22;37062;52.546;13.230;2023-02-28T03:45:55;2.00;99.90
51035;DHT22;37062;52.546;13.230;2023-02-28T03:48:27;1.90;99.90
51035;DHT22;37062;52.546;13.230;2023-02-28T03:50:59;1.90;99.90
51035;DHT22;37062;52.546;13.230;2023-02-28T03:53:32;1.90;99.90
51035;DHT22;37062;52.546;13.230;2023-02-28T03:56:07;1.80;99.90
51035;DHT22;37062;52.546;13.230;2023-02-28T03:58:45;1.80;99.90
51035;DHT22;37062;52.546;13.230;2023-02-28T04:01:19;1.80;99.90
51035;DHT22;37062;52.546;13.230;2023-02-28T04:03:49;1.90;99.90
51035;DHT22;37062;52.546;13.230;2023-02-28T04:06:20;2.00;99.90
51035;DHT22;37062;52.546;13.230;2023-02-28T04:08:51;2.00;99.90
51035;DHT22;37062;52.546;13.230;2023-02-28T04:11:22;2.00;99.90
51035;DHT22;37062;52.546;13.230;2023-02-28T04:13:51;1.90;99.90
51035;DHT22;37062;52.546;13.230;2023-02-28T04:16:21;1.80;99.90
51035;DHT22;37062;52.546;13.230;2023-02-28T04:19:01;1.80;99.90
51035;DHT22;37062;52.546;13.230;2023-02-28T04:21:31;1.70;99.90
51035;DHT22;37062;52.546;13.230;2023-02-28T04:24:01;1.70;99.90
51035;DHT22;37062;52.546;13.230;2023-02-28T04:26:30;1.70;99.90
51035;DHT22;37062;52.546;13.230;2023-02-28T04:28:59;1.80;99.90
51035;DHT22;37062;52.546;13.230;2023-02-28T04:31:28;1.70;99.90
51035;DHT22;37062;52.546;13.230;2023-02-28T04:33:57;1.80;99.90
51035;DHT22;37062;52.546;13.230;2023-02-28T04:36:25;1.70;99.90
51035;DHT22;37062;52.546;13.230;2023-02-28T04:38:54;1.70;99.90
51035;DHT22;37062;52.546;13.230;2023-02-28T04:41:26;1.60;99.90
51035;DHT22;37062;52.546;13.230;2023-02-28T04:43:58;1.50;99.90
51035;DHT22;37062;52.546;13.230;2023-02-28T04:46:26;1.50;99.90
51035;DHT22;37062;52.546;13.230;2023-02-28T04:48:54;1.50;99.90
51035;DHT22;37062;52.546;13.230;2023-02-28T04:51:23;1.50;99.90
51035;DHT22;37062;52.546;13.230;2023-02-28T04:53:52;1.50;99.90
51035;DHT22;37062;52.546;13.230;2023-02-28T04:56:21;1.50;99.90
51035;DHT22;37062;52.546;13.230;2023-02-28T04:58:50;1.40;99.90
51035;DHT22;37062;52.546;13.230;2023-02-28T05:01:24;1.40;99.90
51035;DHT22;37062;52.546;13.230;2023-02-28T05:03:57;1.40;99.90
51035;DHT22;37062;52.546;13.230;2023-02-28T05:06:27;1.30;99.90
51035;DHT22;37062;52.546;13.230;2023-02-28T05:08:57;1.40;99.90
51035;DHT22;37062;52.546;13.230;2023-02-28T05:11:28;1.40;99.90
51035;DHT22;37062;52.546;13.230;2023-02-28T05:14:03;1.40;99.90
51035;DHT22;37062;52.546;13.230;2023-02-28T05:16:32;1.50;99.90
51035;DHT22;37062;52.546;13.230;2023-02-28T05:19:01;1.50;99.90
51035;DHT22;37062;52.546;13.230;2023-02-28T05:21:31;1.50;99.90
51035;DHT22;37062;52.546;13.230;2023-02-28T05:24:01;1.50;99.90
51035;DHT22;37062;52.546;13.230;2023-02-28T05:26:30;1.50;99.90
51035;DHT22;37062;52.546;13.230;2023-02-28T05:28:59;1.50;99.90
51035;DHT22;37062;52.546;13.230;2023-02-28T05:31:30;1.50;99.90
51035;DHT22;37062;52.546;13.230;2023-02-28T05:33:59;1.40;99.90
51035;DHT22;37062;52.546;13.230;2023-02-28T05:36:27;1.40;99.90
51035;DHT22;37062;52.546;13.230;2023-02-28T05:38:55;1.40;99.90
51035;DHT22;37062;52.546;13.230;2023-02-28T05:41:24;1.40;99.90
51035;DHT22;37062;52.546;13.230;2023-02-28T05:43:53;1.40;99.90
51035;DHT22;37062;52.546;13.230;2023-02-28T05:46:21;1.30;99.90
51035;DHT22;37062;52.546;13.230;2023-02-28T05:48:51;1.30;99.90
51035;DHT22;37062;52.546;13.230;2023-02-28T05:51:22;1.20;99.90
51035;DHT22;37062;52.546;13.230;2023-02-28T05:53:51;1.20;99.90
51035;DHT22;37062;52.546;13.230;2023-02-28T05:56:19;1.20;99.90
51035;DHT22;37062;52.546;13.230;2023-02-28T05:58:47;1.20;99.90
51035;DHT22;37062;52.546;13.230;2023-02-28T06:01:24;1.20;99.90
51035;DHT22;37062;52.546;13.230;2023-02-28T06:03:56;1.30;99.90
51035;DHT22;37062;52.546;13.230;2023-02-28T06:06:24;1.20;99.90
51035;DHT22;37062;52.546;13.230;2023-02-28T06:08:52;1.30;99.90
51035;DHT22;37062;52.546;13.230;2023-02-28T06:11:21;1.20;99.90
51035;DHT22;37062;52.546;13.230;2023-02-28T06:13:54;1.20;99.90
51035;DHT22;37062;52.546;13.230;2023-02-28T06:16:23;1.20;99.90
51035;DHT22;37062;52.546;13.230;2023-02-28T06:18:52;1.20;99.90
51035;DHT22;37062;52.546;13.230;2023-02-28T06:21:24;1.20;99.90
51035;DHT22;37062;52.546;13.230;2023-02-28T06:23:52;1.30;99.90
51035;DHT22;37062;52.546;13.230;2023-02-28T06:26:21;1.30;99.90
51035;DHT22;37062;52.546;13.230;2023-02-28T06:28:49;1.30;99.90
51035;DHT22;37062;52.546;13.230;2023-02-28T06:31:18;1.20;99.90
51035;DHT22;37062;52.546;13.230;2023-02-28T06:33:48;1.10;99.90
51035;DHT22;37062;52.546;13.230;2023-02-28T06:36:17;1.20;99.90
51035;DHT22;37062;52.546;13.230;2023-02-28T06:38:47;1.20;99.90
51035;DHT22;37062;52.546;13.230;2023-02-28T06:41:18;1.20;99.90
51035;DHT22;37062;52.546;13.230;2023-02-28T06:43:46;1.20;99.90
51035;DHT22;37062;52.546;13.230;2023-02-28T06:46:14;1.30;99.90
51035;DHT22;37062;52.546;13.230;2023-02-28T06:48:44;1.40;99.90
51035;DHT22;37062;52.546;13.230;2023-02-28T06:51:16;1.80;99.90
51035;DHT22;37062;52.546;13.230;2023-02-28T06:53:44;2.50;99.90
51035;DHT22;37062;52.546;13.230;2023-02-28T06:56:15;3.10;99.90
51035;DHT22;37062;52.546;13.230;2023-02-28T06:58:46;3.90;99.90
51035;DHT22;37062;52.546;13.230;2023-02-28T07:01:15;4.60;99.90
51035;DHT22;37062;52.546;13.230;2023-02-28T07:03:44;5.30;99.90
51035;DHT22;37062;52.546;13.230;2023-02-28T07:06:12;6.10;99.90
51035;DHT22;37062;52.546;13.230;2023-02-28T07:08:40;6.80;99.90
51035;DHT22;37062;52.546;13.230;2023-02-28T07:11:08;7.60;99.90
51035;DHT22;37062;52.546;13.230;2023-02-28T07:13:38;8.20;99.90
51035;DHT22;37062;52.546;13.230;2023-02-28T07:16:09;8.90;99.90
51035;DHT22;37062;52.546;13.230;2023-02-28T07:18:38;9.60;99.90
51035;DHT22;37062;52.546;13.230;2023-02-28T07:21:08;9.90;99.90
51035;DHT22;37062;52.546;13.230;2023-02-28T07:23:37;10.20;99.90
51035;DHT22;37062;52.546;13.230;2023-02-28T07:26:06;10.50;99.90
51035;DHT22;37062;52.546;13.230;2023-02-28T07:28:39;10.80;99.90
51035;DHT22;37062;52.546;13.230;2023-02-28T07:31:08;11.00;99.90
51035;DHT22;37062;52.546;13.230;2023-02-28T07:33:36;11.20;99.90
51035;DHT22;37062;52.546;13.230;2023-02-28T07:36:07;11.20;99.90
51035;DHT22;37062;52.546;13.230;2023-02-28T07:38:36;10.90;99.90
51035;DHT22;37062;52.546;13.230;2023-02-28T07:41:04;10.90;99.90
51035;DHT22;37062;52.546;13.230;2023-02-28T07:43:32;10.50;99.90
51035;DHT22;37062;52.546;13.230;2023-02-28T07:46:04;10.30;99.90
51035;DHT22;37062;52.546;13.230;2023-02-28T07:48:32;10.20;99.90
51035;DHT22;37062;52.546;13.230;2023-02-28T07:51:01;10.20;99.90
51035;DHT22;37062;52.546;13.230;2023-02-28T07:53:30;10.20;99.90
51035;DHT22;37062;52.546;13.230;2023-02-28T07:56:00;10.30;99.90
51035;DHT22;37062;52.546;13.230;2023-02-28T07:58:29;10.20;99.90
51035;DHT22;37062;52.546;13.230;2023-02-28T08:00:57;10.40;99.90
51035;DHT22;37062;52.546;13.230;2023-02-28T08:03:34;10.90;99.90
51035;DHT22;37062;52.546;13.230;2023-02-28T08:06:03;11.30;99.90
51035;DHT22;37062;52.546;13.230;2023-02-28T08:08:31;11.60;99.90
51035;DHT22;37062;52.546;13.230;2023-02-28T08:10:59;11.80;99.90
51035;DHT22;37062;52.546;13.230;2023-02-28T08:13:29;11.90;99.90
51035;DHT22;37062;52.546;13.230;2023-02-28T08:15:57;12.00;99.90
51035;DHT22;37062;52.546;13.230;2023-02-28T08:18:26;12.00;99.90
51035;DHT22;37062;52.546;13.230;2023-02-28T08:20:55;12.10;99.90
51035;DHT22;37062;52.546;13.230;2023-02-28T08:23:24;12.00;99.90
51035;DHT22;37062;52.546;13.230;2023-02-28T08:25:56;12.10;99.90
51035;DHT22;37062;52.546;13.230;2023-02-28T08:28:24;12.20;99.90
51035;DHT22;37062;52.546;13.230;2023-02-28T08:30:53;12.30;99.90
51035;DHT22;37062;52.546;13.230;2023-02-28T08:33:22;12.10;99.90
51035;DHT22;37062;52.546;13.230;2023-02-28T08:35:53;11.80;99.90
51035;DHT22;37062;52.546;13.230;2023-02-28T08:38:23;11.80;99.90
51035;DHT22;37062;52.546;13.230;2023-02-28T08:40:57;11.80;99.90
51035;DHT22;37062;52.546;13.230;2023-02-28T08:43:27;11.70;99.90
51035;DHT22;37062;52.546;13.230;2023-02-28T08:45:56;11.50;99.90
51035;DHT22;37062;52.546;13.230;2023-02-28T08:48:24;11.40;99.90
51035;DHT22;37062;52.546;13.230;2023-02-28T08:50:56;11.10;99.90
51035;DHT22;37062;52.546;13.230;2023-02-28T08:53:35;10.70;99.90
51035;DHT22;37062;52.546;13.230;2023-02-28T08:56:05;10.60;99.90
51035;DHT22;37062;52.546;13.230;2023-02-28T08:58:34;10.50;99.90
51035;DHT22;37062;52.546;13.230;2023-02-28T09:01:08;10.50;99.90
51035;DHT22;37062;52.546;13.230;2023-02-28T09:03:36;10.60;99.90
51035;DHT22;37062;52.546;13.230;2023-02-28T09:06:05;10.30;99.90
51035;DHT22;37062;52.546;13.230;2023-02-28T09:08:34;10.30;99.90
51035;DHT22;37062;52.546;13.230;2023-02-28T09:11:03;10.30;99.90
51035;DHT22;37062;52.546;13.230;2023-02-28T09:13:32;10.10;99.90
51035;DHT22;37062;52.546;13.230;2023-02-28T09:16:02;9.70;99.90
51035;DHT22;37062;52.546;13.230;2023-02-28T09:18:30;9.60;99.90
51035;DHT22;37062;52.546;13.230;2023-02-28T09:20:59;9.60;99.90
51035;DHT22;37062;52.546;13.230;2023-02-28T09:23:27;9.60;99.90
51035;DHT22;37062;52.546;13.230;2023-02-28T09:25:57;9.80;99.90
51035;DHT22;37062;52.546;13.230;2023-02-28T09:28:25;9.80;99.90
51035;DHT22;37062;52.546;13.230;2023-02-28T09:30:54;10.00;99.90
51035;DHT22;37062;52.546;13.230;2023-02-28T09:33:25;9.90;99.90
51035;DHT22;37062;52.546;13.230;2023-02-28T09:35:58;9.70;99.90
51035;DHT22;37062;52.546;13.230;2023-02-28T09:38:27;9.50;99.90
51035;DHT22;37062;52.546;13.230;2023-02-28T09:40:59;9.60;99.90
51035;DHT22;37062;52.546;13.230;2023-02-28T09:43:33;9.50;99.90
51035;DHT22;37062;52.546;13.230;2023-02-28T09:46:08;9.30;99.90
51035;DHT22;37062;52.546;13.230;2023-02-28T09:48:41;9.50;99.90
51035;DHT22;37062;52.546;13.230;2023-02-28T09:51:21;9.40;99.90
51035;DHT22;37062;52.546;13.230;2023-02-28T09:53:53;9.10;99.90
51035;DHT22;37062;52.546;13.230;2023-02-28T09:56:33;9.00;99.90
51035;DHT22;37062;52.546;13.230;2023-02-28T09:59:05;9.10;99.90
51035;DHT22;37062;52.546;13.230;2023-02-28T10:01:42;8.90;99.90
51035;DHT22;37062;52.546;13.230;2023-02-28T10:04:16;8.50;99.90
51035;DHT22;37062;52.546;13.230;2023-02-28T10:06:50;8.40;99.90
51035;DHT22;37062;52.546;13.230;2023-02-28T10:09:21;8.40;99.90
51035;DHT22;37062;52.546;13.230;2023-02-28T10:11:54;8.50;99.90
51035;DHT22;37062;52.546;13.230;2023-02-28T10:14:26;8.60;99.90
51035;DHT22;37062;52.546;13.230;2023-02-28T10:16:58;8.40;99.90
51035;DHT22;37062;52.546;13.230;2023-02-28T10:19:31;8.30;99.90
51035;DHT22;37062;52.546;13.230;2023-02-28T10:22:05;8.30;99.90
51035;DHT22;37062;52.546;13.230;2023-02-28T10:24:40;8.30;99.90
51035;DHT22;37062;52.546;13.230;2023-02-28T10:27:15;8.10;99.90
51035;DHT22;37062;52.546;13.230;2023-02-28T10:29:45;8.20;99.90
51035;DHT22;37062;52.546;13.230;2023-02-28T10:32:16;8.00;99.90
51035;DHT22;37062;52.546;13.230;2023-02-28T10:34:51;7.90;99.90
51035;DHT22;37062;52.546;13.230;2023-02-28T10:37:20;7.80;99.90
51035;DHT22;37062;52.546;13.230;2023-02-28T10:39:49;7.60;99.90
51035;DHT22;37062;52.546;13.230;2023-02-28T10:42:24;7.50;99.90
51035;DHT22;37062;52.546;13.230;2023-02-28T10:45:11;7.40;99.90
51035;DHT22;37062;52.546;13.230;2023-02-28T10:47:49;7.20;99.90
51035;DHT22;37062;52.546;13.230;2023-02-28T10:50:29;7.40;99.90
51035;DHT22;37062;52.546;13.230;2023-02-28T10:53:13;7.40;99.90
51035;DHT22;37062;52.546;13.230;2023-02-28T10:55:43;7.10;99.90
51035;DHT22;37062;52.546;13.230;2023-02-28T10:58:22;7.00;99.90
51035;DHT22;37062;52.546;13.230;2023-02-28T11:00:51;7.00;99.90
51035;DHT22;37062;52.546;13.230;2023-02-28T11:03:31;7.10;99.90
51035;DHT22;37062;52.546;13.230;2023-02-28T11:06:06;7.30;99.90
51035;DHT22;37062;52.546;13.230;2023-02-28T11:08:44;7.50;99.90
51035;DHT22;37062;52.546;13.230;2023-02-28T11:11:14;7.50;99.90
51035;DHT22;37062;52.546;13.230;2023-02-28T11:13:46;7.70;99.90
51035;DHT22;37062;52.546;13.230;2023-02-28T11:16:16;7.60;99.90
51035;DHT22;37062;52.546;13.230;2023-02-28T11:18:49;7.50;99.90
51035;DHT22;37062;52.546;13.230;2023-02-28T11:21:24;7.20;99.90
51035;DHT22;37062;52.546;13.230;2023-02-28T11:24:02;7.10;99.90
51035;DHT22;37062;52.546;13.230;2023-02-28T11:26:41;7.30;99.90
51035;DHT22;37062;52.546;13.230;2023-02-28T11:29:20;7.30;99.90
51035;DHT22;37062;52.546;13.230;2023-02-28T11:32:16;7.30;99.90
51035;DHT22;37062;52.546;13.230;2023-02-28T11:35:00;7.40;99.90
51035;DHT22;37062;52.546;13.230;2023-02-28T11:37:31;7.40;99.90
51035;DHT22;37062;52.546;13.230;2023-02-28T11:39:59;7.40;99.90
51035;DHT22;37062;52.546;13.230;2023-02-28T11:42:40;7.40;99.90
51035;DHT22;37062;52.546;13.230;2023-02-28T11:45:24;7.40;99.90
51035;DHT22;37062;52.546;13.230;2023-02-28T11:48:04;7.30;99.90
51035;DHT22;37062;52.546;13.230;2023-02-28T11:50:49;7.30;99.90
51035;DHT22;37062;52.546;13.230;2023-02-28T11:53:24;7.30;99.90
51035;DHT22;37062;52.546;13.230;2023-02-28T11:56:02;7.30;99.90
51035;DHT22;37062;52.546;13.230;2023-02-28T11:58:42;7.30;99.90
51035;DHT22;37062;52.546;13.230;2023-02-28T12:01:28;7.30;99.90
51035;DHT22;37062;52.546;13.230;2023-02-28T12:04:09;7.30;99.90
51035;DHT22;37062;52.546;13.230;2023-02-28T12:06:45;7.40;99.90
51035;DHT22;37062;52.546;13.230;2023-02-28T12:09:36;7.40;99.90
51035;DHT22;37062;52.546;13.230;2023-02-28T12:12:27;7.40;99.90
51035;DHT22;37062;52.546;13.230;2023-02-28T12:15:13;7.20;99.90
51035;DHT22;37062;52.546;13.230;2023-02-28T12:18:03;7.10;99.90
51035;DHT22;37062;52.546;13.230;2023-02-28T12:20:38;7.10;99.90
51035;DHT22;37062;52.546;13.230;2023-02-28T12:23:26;7.10;99.90
51035;DHT22;37062;52.546;13.230;2023-02-28T12:26:05;7.10;99.90
51035;DHT22;37062;52.546;13.230;2023-02-28T12:28:39;7.20;99.90
51035;DHT22;37062;52.546;13.230;2023-02-28T12:31:13;7.20;99.90
51035;DHT22;37062;52.546;13.230;2023-02-28T12:33:50;7.20;99.90
51035;DHT22;37062;52.546;13.230;2023-02-28T12:36:20;7.10;99.90
51035;DHT22;37062;52.546;13.230;2023-02-28T12:38:53;7.10;99.90
51035;DHT22;37062;52.546;13.230;2023-02-28T12:41:29;7.20;99.90
51035;DHT22;37062;52.546;13.230;2023-02-28T12:44:02;7.20;99.90
51035;DHT22;37062;52.546;13.230;2023-02-28T12:46:34;7.40;99.90
51035;DHT22;37062;52.546;13.230;2023-02-28T12:49:08;7.40;99.90
51035;DHT22;37062;52.546;13.230;2023-02-28T12:51:38;7.30;99.90
51035;DHT22;37062;52.546;13.230;2023-02-28T12:54:12;7.20;99.90
51035;DHT22;37062;52.546;13.230;2023-02-28T12:56:49;7.30;99.90
51035;DHT22;37062;52.546;13.230;2023-02-28T12:59:25;7.20;99.90
51035;DHT22;37062;52.546;13.230;2023-02-28T13:02:23;7.40;99.90
51035;DHT22;37062;52.546;13.230;2023-02-28T13:05:12;7.50;99.90
51035;DHT22;37062;52.546;13.230;2023-02-28T13:08:16;7.50;99.90
51035;DHT22;37062;52.546;13.230;2023-02-28T13:10:50;7.50;99.90
51035;DHT22;37062;52.546;13.230;2023-02-28T13:13:22;7.40;99.90
51035;DHT22;37062;52.546;13.230;2023-02-28T13:15:59;7.30;99.90
51035;DHT22;37062;52.546;13.230;2023-02-28T13:18:32;7.40;99.90
51035;DHT22;37062;52.546;13.230;2023-02-28T13:21:06;7.50;99.90
51035;DHT22;37062;52.546;13.230;2023-02-28T13:23:59;7.40;99.90
51035;DHT22;37062;52.546;13.230;2023-02-28T13:29:37;7.40;99.90
51035;DHT22;37062;52.546;13.230;2023-02-28T13:32:34;7.40;99.90
51035;DHT22;37062;52.546;13.230;2023-02-28T13:35:36;7.50;99.90
51035;DHT22;37062;52.546;13.230;2023-02-28T13:38:36;7.40;99.90
51035;DHT22;37062;52.546;13.230;2023-02-28T13:41:46;7.40;99.90
51035;DHT22;37062;52.546;13.230;2023-02-28T13:44:17;7.60;99.90
51035;DHT22;37062;52.546;13.230;2023-02-28T13:50:15;7.90;99.90
51035;DHT22;37062;52.546;13.230;2023-02-28T13:52:48;8.00;99.90
51035;DHT22;37062;52.546;13.230;2023-02-28T13:55:27;7.90;99.90
51035;DHT22;37062;52.546;13.230;2023-02-28T13:58:15;7.70;99.90
51035;DHT22;37062;52.546;13.230;2023-02-28T14:01:03;7.60;99.90
51035;DHT22;37062;52.546;13.230;2023-02-28T14:03:44;7.50;99.90
51035;DHT22;37062;52.546;13.230;2023-02-28T14:06:23;7.50;99.90
51035;DHT22;37062;52.546;13.230;2023-02-28T14:08:57;7.40;99.90
51035;DHT22;37062;52.546;13.230;2023-02-28T14:11:30;7.40;99.90
51035;DHT22;37062;52.546;13.230;2023-02-28T14:14:00;7.50;99.90
51035;DHT22;37062;52.546;13.230;2023-02-28T14:16:37;7.50;99.90
51035;DHT22;37062;52.546;13.230;2023-02-28T14:19:12;7.50;99.90
51035;DHT22;37062;52.546;13.230;2023-02-28T14:21:49;7.40;99.90
51035;DHT22;37062;52.546;13.230;2023-02-28T14:24:42;7.60;99.90
51035;DHT22;37062;52.546;13.230;2023-02-28T14:27:41;7.50;99.90
51035;DHT22;37062;52.546;13.230;2023-02-28T14:30:29;7.40;99.90
51035;DHT22;37062;52.546;13.230;2023-02-28T14:36:10;7.40;99.90
51035;DHT22;37062;52.546;13.230;2023-02-28T14:38:43;7.50;99.90
51035;DHT22;37062;52.546;13.230;2023-02-28T14:41:23;7.50;99.90
51035;DHT22;37062;52.546;13.230;2023-02-28T14:43:58;7.50;99.90
51035;DHT22;37062;52.546;13.230;2023-02-28T14:46:33;7.30;99.90
51035;DHT22;37062;52.546;13.230;2023-02-28T14:49:04;7.20;99.90
51035;DHT22;37062;52.546;13.230;2023-02-28T14:51:34;7.20;99.90
51035;DHT22;37062;52.546;13.230;2023-02-28T14:54:03;7.20;99.90
51035;DHT22;37062;52.546;13.230;2023-02-28T14:56:35;7.20;99.90
51035;DHT22;37062;52.546;13.230;2023-02-28T14:59:25;7.20;99.90
51035;DHT22;37062;52.546;13.230;2023-02-28T15:02:15;7.30;99.90
51035;DHT22;37062;52.546;13.230;2023-02-28T15:04:53;7.40;99.90
51035;DHT22;37062;52.546;13.230;2023-02-28T15:07:22;7.40;99.90
51035;DHT22;37062;52.546;13.230;2023-02-28T15:10:18;7.40;99.90
51035;DHT22;37062;52.546;13.230;2023-02-28T15:12:51;7.30;99.90
51035;DHT22;37062;52.546;13.230;2023-02-28T15:15:25;7.20;99.90
51035;DHT22;37062;52.546;13.230;2023-02-28T15:18:07;7.10;99.90
51035;DHT22;37062;52.546;13.230;2023-02-28T15:20:39;7.10;99.90
51035;DHT22;37062;52.546;13.230;2023-02-28T15:23:09;6.90;99.90
51035;DHT22;37062;52.546;13.230;2023-02-28T15:25:40;6.90;99.90
51035;DHT22;37062;52.546;13.230;2023-02-28T15:28:14;7.00;99.90
51035;DHT22;37062;52.546;13.230;2023-02-28T15:30:54;7.00;99.90
51035;DHT22;37062;52.546;13.230;2023-02-28T15:33:24;6.90;99.90
51035;DHT22;37062;52.546;13.230;2023-02-28T15:36:05;7.00;99.90
51035;DHT22;37062;52.546;13.230;2023-02-28T15:38:35;7.10;99.90
51035;DHT22;37062;52.546;13.230;2023-02-28T15:41:04;7.10;99.90
51035;DHT22;37062;52.546;13.230;2023-02-28T15:43:38;7.00;99.90
51035;DHT22;37062;52.546;13.230;2023-02-28T15:46:09;7.00;99.90
51035;DHT22;37062;52.546;13.230;2023-02-28T15:48:45;7.10;99.90
51035;DHT22;37062;52.546;13.230;2023-02-28T15:51:19;7.10;99.90
51035;DHT22;37062;52.546;13.230;2023-02-28T15:53:50;7.10;99.90
51035;DHT22;37062;52.546;13.230;2023-02-28T15:56:24;7.20;99.90
51035;DHT22;37062;52.546;13.230;2023-02-28T15:58:54;7.10;99.90
51035;DHT22;37062;52.546;13.230;2023-02-28T16:01:26;6.90;99.90
51035;DHT22;37062;52.546;13.230;2023-02-28T16:03:59;6.90;99.90
51035;DHT22;37062;52.546;13.230;2023-02-28T16:06:36;7.10;99.90
51035;DHT22;37062;52.546;13.230;2023-02-28T16:09:08;7.10;99.90
51035;DHT22;37062;52.546;13.230;2023-02-28T16:11:40;7.20;99.90
51035;DHT22;37062;52.546;13.230;2023-02-28T16:14:15;7.20;99.90
51035;DHT22;37062;52.546;13.230;2023-02-28T16:16:47;7.20;99.90
51035;DHT22;37062;52.546;13.230;2023-02-28T16:19:16;7.00;99.90